Time;durP1;ratioP1;P1;durP2;ratioP2;P2;SDS_P1;SDS_P2;PMS_P1;PMS_P2;Temp;Humidity;BMP_temperature;BMP_pressure;BME280_temperature;BME280_humidity;BME280_pressure;Samples;Min_cycle;Max_cycle;Signal;HPM_P1;HPM_P2
2023/03/01 00:00:39;;;;;;;;;;;;;;;11.67;72.78;102326.88;5054890;28;20024;-83
2023/03/01 00:03:04;;;;;;;5.82;4.47;;;;;;;11.66;72.70;102301.47;5072021;28;19919;-83
2023/03/01 00:05:30;;;;;;;7.07;4.75;;;;;;;11.59;72.62;102289.66;5071296;28;20507;-83
2023/03/01 00:07:55;;;;;;;6.70;4.77;;;;;;;11.33;72.97;102244.16;5070328;28;20040;-83
2023/03/01 00:10:21;;;;;;;7.57;5.13;;;;;;;11.51;72.97;102288.16;5069516;28;20306;-83
2023/03/01 00:12:47;;;;;;;5.97;4.47;;;;;;;11.49;73.26;102279.31;5070755;28;20421;-83
2023/03/01 00:15:12;;;;;;;6.38;4.72;;;;;;;11.37;72.90;102259.28;5071647;28;20097;-82
2023/03/01 00:17:38;;;;;;;6.78;4.63;;;;;;;11.59;73.16;102297.50;5071558;28;20036;-83
2023/03/01 00:20:08;;;;;;;6.88;4.65;;;;;;;11.51;73.08;102288.16;5070894;28;20024;-83
2023/03/01 00:22:33;;;;;;;5.45;4.20;;;;;;;11.64;72.96;102305.69;5071437;28;20052;-83
2023/03/01 00:24:59;;;;;;;7.32;4.70;;;;;;;11.53;72.73;102268.28;5069814;28;20025;-83
2023/03/01 00:27:24;;;;;;;6.07;4.50;;;;;;;11.64;72.89;102290.94;5071212;28;20039;-81
2023/03/01 00:29:50;;;;;;;7.18;4.72;;;;;;;11.67;72.79;102293.75;5070665;28;20062;-84
2023/03/01 00:32:15;;;;;;;5.80;4.43;;;;;;;11.63;72.62;102298.66;5071312;28;20039;-83
2023/03/01 00:34:41;;;;;;;5.63;4.05;;;;;;;11.56;72.74;102284.22;5071685;28;20020;-83
2023/03/01 00:37:07;;;;;;;6.10;4.60;;;;;;;11.38;73.01;102254.97;5050387;28;20494;-83
2023/03/01 00:39:33;;;;;;;6.55;4.50;;;;;;;11.57;72.82;102304.34;5067989;28;20024;-83
2023/03/01 00:41:58;;;;;;;7.03;4.43;;;;;;;11.33;72.58;102264.19;5052643;28;20029;-84
2023/03/01 00:44:24;;;;;;;6.20;4.63;;;;;;;11.32;72.55;102268.47;5053205;28;20062;-82
2023/03/01 00:46:50;;;;;;;5.75;4.30;;;;;;;11.54;72.97;102325.94;5071363;28;20036;-83
2023/03/01 00:49:15;;;;;;;6.53;4.65;;;;;;;11.27;72.56;102268.94;5035989;28;20589;-83
2023/03/01 00:51:41;;;;;;;6.50;4.50;;;;;;;11.52;72.46;102317.06;5070220;28;20040;-84
2023/03/01 00:54:09;;;;;;;6.15;4.47;;;;;;;11.55;72.39;102330.38;5072159;28;20305;-83
2023/03/01 00:56:35;;;;;;;6.32;4.57;;;;;;;11.54;72.43;102320.72;5052816;28;20040;-83
2023/03/01 00:59:01;;;;;;;5.25;4.00;;;;;;;11.54;72.45;102312.88;5053150;28;20051;-83
2023/03/01 01:01:29;;;;;;;5.80;4.35;;;;;;;11.63;72.32;102324.81;5070267;28;20028;-84
2023/03/01 01:03:58;;;;;;;6.07;4.40;;;;;;;11.60;72.37;102305.47;5068232;28;20086;-83
2023/03/01 01:06:26;;;;;;;6.80;4.60;;;;;;;11.65;72.41;102315.38;5056336;28;20481;-84
2023/03/01 01:08:53;;;;;;;6.88;4.25;;;;;;;11.46;72.58;102289.56;5052448;28;20154;-83
2023/03/01 01:11:19;;;;;;;6.63;4.68;;;;;;;11.63;72.97;102337.91;5053045;28;20460;-83
2023/03/01 01:13:47;;;;;;;5.65;4.22;;;;;;;11.65;72.25;102357.25;5052720;28;20115;-83
2023/03/01 01:16:14;;;;;;;5.38;4.32;;;;;;;11.43;72.69;102324.25;5052780;28;20117;-84
2023/03/01 01:18:40;;;;;;;5.75;3.95;;;;;;;11.52;72.54;102347.56;5036920;28;20025;-84
2023/03/01 01:21:14;;;;;;;5.45;4.50;;;;;;;11.60;72.45;102370.00;5052155;28;20024;-83
2023/03/01 01:23:41;;;;;;;5.47;4.30;;;;;;;11.59;72.50;102363.81;5051911;28;20040;-84
2023/03/01 01:26:12;;;;;;;5.97;4.13;;;;;;;11.48;72.74;102346.41;5035289;28;20068;-84
2023/03/01 01:28:38;;;;;;;6.57;4.60;;;;;;;11.46;72.73;102352.34;5053593;28;20012;-84
2023/03/01 01:31:04;;;;;;;5.65;4.25;;;;;;;11.59;72.51;102376.00;5068828;28;20054;-84
2023/03/01 01:33:30;;;;;;;7.05;4.13;;;;;;;11.55;72.78;102368.72;5051080;28;20035;-83
2023/03/01 01:35:56;;;;;;;5.60;4.43;;;;;;;11.54;72.40;102357.34;5051941;28;20020;-83
2023/03/01 01:38:22;;;;;;;5.45;4.20;;;;;;;11.58;72.60;102364.63;5051552;28;20116;-83
2023/03/01 01:40:49;;;;;;;5.60;4.00;;;;;;;11.55;72.94;102364.38;5051392;28;20032;-84
2023/03/01 01:43:22;;;;;;;5.03;4.00;;;;;;;11.17;73.02;102296.09;5051901;28;20115;-83
2023/03/01 01:45:48;;;;;;;5.35;4.07;;;;;;;11.23;72.68;102304.41;5054485;28;20056;-84
2023/03/01 01:48:21;;;;;;;5.15;3.90;;;;;;;11.49;72.71;102350.84;5049534;28;20029;-84
2023/03/01 01:50:53;;;;;;;5.18;3.92;;;;;;;11.06;72.74;102282.22;5051856;28;20081;-82
2023/03/01 01:53:19;;;;;;;4.68;3.75;;;;;;;11.15;73.02;102288.16;5051555;28;20078;-84
2023/03/01 01:55:46;;;;;;;;;;;;;;;11.54;72.90;102351.22;5069622;28;20020;-83
2023/03/01 01:58:14;;;;;;;6.65;4.30;;;;;;;11.08;72.84;102278.00;5050600;28;20385;-84
2023/03/01 02:00:39;;;;;;;5.57;4.00;;;;;;;11.38;72.67;102330.81;5052372;28;20021;-84
2023/03/01 02:03:14;;;;;;;5.15;4.20;;;;;;;11.49;72.88;102344.69;5069784;28;20509;-82
2023/03/01 02:05:39;;;;;;;5.35;3.92;;;;;;;11.53;72.67;102342.44;5050855;28;20024;-84
2023/03/01 02:08:06;;;;;;;6.35;4.20;;;;;;;11.49;73.07;102339.47;5068357;28;20580;-84
2023/03/01 02:10:33;;;;;;;5.28;4.18;;;;;;;11.30;72.93;102308.41;5052299;28;20668;-84
2023/03/01 02:13:00;;;;;;;5.28;3.92;;;;;;;11.12;72.63;102285.28;5052253;28;20028;-83
2023/03/01 02:15:26;;;;;;;5.60;4.15;;;;;;;11.43;72.82;102342.56;5048410;28;20033;-83
2023/03/01 02:17:52;;;;;;;;;;;;;;;11.48;73.00;102367.34;5048652;28;20029;-82
2023/03/01 02:20:24;;;;;;;5.40;3.95;;;;;;;11.37;72.93;102348.22;5045752;28;19962;-83
2023/03/01 02:22:50;;;;;;;4.60;3.50;;;;;;;11.34;72.93;102353.19;5048140;28;20045;-82
2023/03/01 02:25:19;;;;;;;6.03;4.13;;;;;;;11.48;72.89;102361.22;5046483;28;20406;-83
2023/03/01 02:27:47;;;;;;;4.60;3.58;;;;;;;11.48;72.90;102354.25;5049353;28;20108;-83
2023/03/01 02:30:12;;;;;;;5.20;3.80;;;;;;;11.44;73.00;102354.81;5049598;28;20036;-82
2023/03/01 02:32:41;;;;;;;5.97;3.72;;;;;;;11.46;72.97;102360.19;5048546;28;20485;-83
2023/03/01 02:35:10;;;;;;;5.78;4.05;;;;;;;11.43;72.79;102352.09;5030593;28;20036;-84
2023/03/01 02:37:36;;;;;;;5.38;3.88;;;;;;;11.33;73.05;102325.25;5045084;28;20029;-84
2023/03/01 02:40:05;;;;;;;5.53;4.07;;;;;;;11.38;73.05;102343.91;5065809;28;20025;-83
2023/03/01 02:42:35;;;;;;;5.57;4.03;;;;;;;11.28;73.26;102342.31;5039074;28;20026;-83
2023/03/01 02:45:01;;;;;;;5.28;4.05;;;;;;;11.21;73.19;102326.91;5061187;28;20025;-83
2023/03/01 02:47:27;;;;;;;4.80;3.85;;;;;;;11.26;72.87;102333.44;5034064;28;20030;-84
2023/03/01 02:49:52;;;;;;;5.82;3.80;;;;;;;11.40;72.99;102356.28;5047829;28;20029;-84
2023/03/01 02:52:36;;;;;;;6.07;3.97;;;;;;;11.37;73.12;102349.94;5048398;28;20027;-84
2023/03/01 02:55:08;;;;;;;5.65;3.88;;;;;;;11.37;72.87;102344.72;5042801;28;20030;-84
2023/03/01 02:57:35;;;;;;;5.35;3.83;;;;;;;11.36;73.08;102343.75;5047118;28;20082;-84
2023/03/01 03:00:06;;;;;;;6.30;4.05;;;;;;;11.21;73.13;102333.06;5047198;28;20029;-84
2023/03/01 03:02:36;;;;;;;7.50;4.00;;;;;;;11.33;73.05;102351.41;5033674;28;20499;-84
2023/03/01 03:05:03;;;;;;;5.45;3.92;;;;;;;11.37;73.03;102353.44;5054130;28;20031;-83
2023/03/01 03:07:28;;;;;;;4.95;3.67;;;;;;;11.25;72.72;102322.84;5047309;28;20135;-84
2023/03/01 03:09:54;;;;;;;5.07;3.35;;;;;;;11.21;72.97;102316.47;5031453;28;20494;-83
2023/03/01 03:12:20;;;;;;;5.82;3.92;;;;;;;11.33;72.79;102340.94;5031298;28;20021;-84
2023/03/01 03:14:45;;;;;;;5.80;3.60;;;;;;;11.23;72.88;102320.09;5050459;28;20029;-83
2023/03/01 03:17:11;;;;;;;4.78;3.55;;;;;;;11.25;73.12;102335.91;5048484;28;20025;-84
2023/03/01 03:19:37;;;;;;;5.93;3.78;;;;;;;10.83;73.12;102270.00;5049179;28;20021;-84
2023/03/01 03:22:02;;;;;;;6.22;4.00;;;;;;;11.18;73.17;102343.28;5047538;28;20107;-84
2023/03/01 03:24:28;;;;;;;5.35;3.78;;;;;;;11.17;73.12;102341.44;5048629;28;20490;-83
2023/03/01 03:26:54;;;;;;;5.97;4.13;;;;;;;11.22;73.24;102344.44;5048142;28;20506;-82
2023/03/01 03:29:19;;;;;;;5.85;4.20;;;;;;;10.94;73.25;102291.72;5046486;28;20037;-84
2023/03/01 03:31:45;;;;;;;4.55;3.70;;;;;;;11.22;73.25;102328.75;5050881;28;20025;-83
2023/03/01 03:34:17;;;;;;;5.10;3.97;;;;;;;10.96;73.24;102292.75;5052884;28;20036;-83
2023/03/01 03:36:43;;;;;;;7.25;4.13;;;;;;;10.89;73.21;102274.78;5051908;28;20025;-84
2023/03/01 03:39:08;;;;;;;4.50;3.63;;;;;;;10.97;73.14;102282.41;5041131;28;20029;-84
2023/03/01 03:41:34;;;;;;;6.82;4.28;;;;;;;11.18;73.28;102317.13;5051064;28;20028;-85
2023/03/01 03:44:19;;;;;;;6.15;4.10;;;;;;;11.04;73.56;102314.25;5052154;28;20112;-83
2023/03/01 03:46:44;;;;;;;4.55;3.53;;;;;;;11.20;73.00;102325.13;5052469;28;20099;-83
2023/03/01 03:49:10;;;;;;;6.95;4.13;;;;;;;11.10;73.37;102309.50;5052278;28;20501;-83
2023/03/01 03:51:35;;;;;;;5.05;4.00;;;;;;;11.00;72.83;102302.66;5066607;28;20041;-85
2023/03/01 03:54:01;;;;;;;6.35;4.35;;;;;;;10.97;73.02;102310.28;5052342;28;20053;-83
2023/03/01 03:56:27;;;;;;;5.80;4.07;;;;;;;11.07;72.97;102312.81;5066630;28;20036;-83
2023/03/01 03:58:52;;;;;;;8.10;4.60;;;;;;;11.21;72.86;102326.91;5048140;28;20498;-82
2023/03/01 04:01:18;;;;;;;6.47;4.07;;;;;;;11.16;73.32;102328.28;5048730;28;20552;-83
2023/03/01 04:03:46;;;;;;;5.95;4.38;;;;;;;10.93;73.11;102292.53;5052974;28;20020;-84
2023/03/01 04:06:13;;;;;;;5.85;4.43;;;;;;;11.20;73.11;102346.94;5047362;28;20052;-82
2023/03/01 04:08:39;;;;;;;5.57;4.00;;;;;;;11.11;73.01;102332.22;5050921;28;20028;-83
2023/03/01 04:13:51;;;;;;;6.85;4.18;;;;;;;11.23;73.03;102330.56;5039589;28;20043;-84
2023/03/01 04:16:17;;;;;;;6.95;3.97;;;;;;;11.16;73.11;102323.97;5050374;28;20037;-84
2023/03/01 04:18:43;;;;;;;4.85;3.83;;;;;;;11.17;72.92;102320.53;5051959;28;20029;-84
2023/03/01 04:21:11;;;;;;;5.97;4.30;;;;;;;10.94;73.09;102286.50;5067305;28;20025;-84
2023/03/01 04:23:37;;;;;;;5.45;4.05;;;;;;;11.15;73.13;102315.97;5050015;28;20071;-84
2023/03/01 04:26:03;;;;;;;6.53;4.53;;;;;;;11.02;73.13;102294.94;5050516;28;20108;-84
2023/03/01 04:28:33;;;;;;;6.10;4.30;;;;;;;11.13;72.96;102322.81;5050841;28;20140;-84
2023/03/01 04:31:12;;;;;;;6.15;4.70;;;;;;;11.10;72.80;102312.13;5050809;28;20071;-83
2023/03/01 04:33:51;;;;;;;7.13;4.72;;;;;;;10.91;73.01;102279.34;5030787;28;20085;-83
2023/03/01 04:36:18;;;;;;;6.90;4.45;;;;;;;11.11;72.98;102313.94;5044898;28;20032;-84
2023/03/01 04:38:47;;;;;;;7.30;4.68;;;;;;;11.15;73.02;102318.59;5042028;28;20033;-84
2023/03/01 04:41:13;;;;;;;6.70;4.63;;;;;;;11.09;73.24;102291.97;5047854;28;20108;-84
2023/03/01 04:43:39;;;;;;;7.35;5.03;;;;;;;11.08;73.12;102304.16;5049701;28;20041;-84
2023/03/01 04:46:08;;;;;;;7.15;4.82;;;;;;;11.12;72.88;102297.47;5049976;28;20032;-83
2023/03/01 04:48:39;;;;;;;5.60;4.18;;;;;;;11.15;72.91;102303.84;5049659;28;20044;-83
2023/03/01 04:51:05;;;;;;;7.47;4.80;;;;;;;11.04;73.04;102283.78;5049159;28;20121;-84
2023/03/01 04:53:32;;;;;;;;;;;;;;;11.06;73.31;102286.53;5040810;28;20040;-84
2023/03/01 04:55:58;;;;;;;6.57;4.13;;;;;;;10.94;72.94;102262.97;5048519;28;19948;-83
2023/03/01 04:58:24;;;;;;;7.18;4.45;;;;;;;11.09;73.45;102289.38;5051398;28;20063;-84
2023/03/01 05:00:50;;;;;;;5.90;4.38;;;;;;;10.98;73.46;102286.88;5048612;28;20033;-84
2023/03/01 05:03:19;;;;;;;6.43;4.90;;;;;;;11.06;73.10;102290.06;5051030;28;20037;-84
2023/03/01 05:05:46;;;;;;;6.38;4.53;;;;;;;11.10;72.90;102305.19;5050335;28;20044;-84
2023/03/01 05:08:17;;;;;;;6.88;4.60;;;;;;;10.90;72.93;102273.97;5049678;28;20025;-84
2023/03/01 05:10:45;;;;;;;6.32;4.60;;;;;;;11.07;73.18;102307.56;5049947;28;20028;-84
2023/03/01 05:13:13;;;;;;;6.63;4.70;;;;;;;10.62;72.92;102226.53;5037364;28;20483;-84
2023/03/01 05:15:39;;;;;;;6.15;4.35;;;;;;;10.70;73.09;102241.09;5049202;28;20113;-84
2023/03/01 05:18:11;;;;;;;6.60;4.18;;;;;;;11.09;72.96;102310.28;5049869;28;20119;-84
2023/03/01 05:20:37;;;;;;;6.90;4.22;;;;;;;11.04;72.64;102316.88;5049984;28;20489;-83
2023/03/01 05:23:05;;;;;;;8.27;4.63;;;;;;;10.84;72.90;102277.06;5049424;28;20052;-84
2023/03/01 05:25:32;;;;;;;8.10;4.97;;;;;;;11.08;72.80;102311.09;5049335;28;20402;-83
2023/03/01 05:28:03;;;;;;;6.00;4.18;;;;;;;10.87;72.96;102285.13;5042906;28;20057;-83
2023/03/01 05:30:31;;;;;;;7.03;4.68;;;;;;;10.92;73.21;102289.00;5056111;28;20037;-84
2023/03/01 05:32:56;;;;;;;5.63;4.32;;;;;;;10.93;72.78;102292.53;5050116;28;20028;-84
2023/03/01 05:35:22;;;;;;;5.25;4.22;;;;;;;11.02;73.11;102302.78;5049351;28;20398;-84
2023/03/01 05:37:48;;;;;;;6.90;4.72;;;;;;;11.07;73.13;102311.88;5020755;28;20084;-84
2023/03/01 05:40:17;;;;;;;8.77;4.72;;;;;;;10.99;72.79;102309.59;5048785;28;20028;-83
2023/03/01 05:42:47;;;;;;;6.07;4.35;;;;;;;10.95;72.89;102315.38;5065429;28;20417;-84
2023/03/01 05:45:14;;;;;;;6.70;4.65;;;;;;;10.97;73.18;102302.44;5041511;28;20029;-84
2023/03/01 05:47:43;;;;;;;7.82;4.45;;;;;;;11.01;72.86;102309.72;5039227;28;20040;-84
2023/03/01 05:50:18;;;;;;;6.18;4.32;;;;;;;10.94;73.13;102297.88;5058557;28;20029;-84
2023/03/01 05:52:44;;;;;;;5.72;4.38;;;;;;;10.86;73.22;102283.31;5040960;28;20040;-84
2023/03/01 05:55:10;;;;;;;6.60;4.68;;;;;;;10.96;73.30;102303.22;5044410;28;20087;-83
2023/03/01 05:57:35;;;;;;;8.43;4.43;;;;;;;10.65;73.31;102255.53;5045500;28;20067;-83
2023/03/01 06:00:01;;;;;;;6.20;4.47;;;;;;;10.72;72.90;102266.56;5043605;28;20025;-84
2023/03/01 06:02:27;;;;;;;6.93;4.80;;;;;;;10.75;73.09;102276.31;5044169;28;20143;-84
2023/03/01 06:04:52;;;;;;;6.80;4.53;;;;;;;10.94;73.03;102316.19;5044206;28;20033;-84
2023/03/01 06:07:18;;;;;;;6.35;4.30;;;;;;;10.94;73.34;102308.34;5045770;28;20047;-84
2023/03/01 06:09:44;;;;;;;5.97;4.60;;;;;;;10.68;73.16;102264.50;5040232;28;20063;-83
2023/03/01 06:12:09;;;;;;;6.28;4.18;;;;;;;10.74;72.85;102272.81;5044273;28;20071;-83
2023/03/01 06:14:35;;;;;;;6.32;4.82;;;;;;;10.99;73.00;102316.53;5044417;28;20146;-83
2023/03/01 06:17:00;;;;;;;6.45;4.47;;;;;;;10.74;73.06;102270.19;5042907;28;20033;-83
2023/03/01 06:19:26;;;;;;;6.22;4.45;;;;;;;10.82;73.26;102294.31;5046525;28;20024;-84
2023/03/01 06:21:52;;;;;;;6.53;4.53;;;;;;;10.96;73.03;102313.66;5035215;28;20053;-84
2023/03/01 06:24:17;;;;;;;6.97;4.53;;;;;;;10.92;73.03;102303.75;5044626;28;20037;-84
2023/03/01 06:26:43;;;;;;;8.98;4.45;;;;;;;10.99;72.77;102322.66;5043926;28;20043;-84
2023/03/01 06:29:08;;;;;;;6.82;4.43;;;;;;;10.98;72.87;102323.47;5042209;28;20029;-83
2023/03/01 06:31:34;;;;;;;6.60;4.30;;;;;;;10.86;73.11;102301.59;5036611;28;20083;-83
2023/03/01 06:34:00;;;;;;;6.93;4.70;;;;;;;10.78;73.15;102290.53;5043891;28;20131;-83
2023/03/01 06:36:25;;;;;;;6.85;4.55;;;;;;;10.91;73.12;102325.47;5045842;28;20949;-84
2023/03/01 06:38:51;;;;;;;7.33;4.47;;;;;;;10.89;72.97;102327.97;5048090;28;20040;-84
2023/03/01 06:41:16;;;;;;;7.40;4.53;;;;;;;10.86;73.18;102324.19;5039918;28;20275;-84
2023/03/01 06:43:42;;;;;;;6.43;4.20;;;;;;;10.87;73.03;102324.31;5039902;28;20295;-84
2023/03/01 06:46:07;;;;;;;5.70;4.40;;;;;;;10.77;73.34;102313.94;5046234;28;20041;-84
2023/03/01 06:48:35;;;;;;;6.05;4.30;;;;;;;10.89;73.04;102322.72;5046434;28;20025;-85
2023/03/01 06:51:00;;;;;;;6.03;4.28;;;;;;;10.83;72.81;102323.97;5036108;28;20055;-84
2023/03/01 06:53:30;;;;;;;6.90;4.07;;;;;;;10.96;72.98;102352.88;5043480;28;20523;-84
2023/03/01 06:55:57;;;;;;;6.95;4.72;;;;;;;10.96;72.96;102348.56;5025754;28;20040;-83
2023/03/01 06:58:23;;;;;;;6.55;4.65;;;;;;;10.87;72.92;102331.25;5057222;28;20120;-83
2023/03/01 07:00:48;;;;;;;7.45;4.65;;;;;;;10.89;72.94;102333.19;5042963;28;20029;-84
2023/03/01 07:03:14;;;;;;;5.50;4.23;;;;;;;10.85;72.67;102320.69;5044204;28;20025;-84
2023/03/01 07:05:40;;;;;;;8.02;4.70;;;;;;;10.86;73.13;102317.28;5041451;28;20291;-85
2023/03/01 07:08:05;;;;;;;6.15;4.45;;;;;;;10.94;72.91;102323.09;5043761;28;20065;-84
2023/03/01 07:10:31;;;;;;;6.18;4.40;;;;;;;10.84;72.96;102308.41;5037988;28;20033;-84
2023/03/01 07:12:58;;;;;;;6.20;4.13;;;;;;;10.88;72.85;102318.31;5046703;28;20106;-83
2023/03/01 07:15:27;;;;;;;6.43;4.28;;;;;;;10.57;73.00;102267.97;5043817;28;20369;-84
2023/03/01 07:17:54;;;;;;;6.53;4.70;;;;;;;10.77;73.13;102314.88;5043131;28;20348;-84
2023/03/01 07:20:24;;;;;;;6.38;4.47;;;;;;;10.88;73.31;102331.38;5047879;28;20048;-83
2023/03/01 07:22:55;;;;;;;5.88;4.22;;;;;;;10.69;73.09;102297.69;5030816;28;20049;-84
2023/03/01 07:25:24;;;;;;;7.07;4.57;;;;;;;10.31;73.11;102224.16;5065565;28;20029;-84
2023/03/01 07:27:56;;;;;;;5.20;4.40;;;;;;;10.34;72.99;102237.44;5033777;28;20033;-84
2023/03/01 07:30:22;;;;;;;6.50;4.57;;;;;;;10.27;72.84;102220.38;5050063;28;20032;-84
2023/03/01 07:32:48;;;;;;;7.22;4.70;;;;;;;10.29;72.96;102217.88;5052734;28;20040;-83
2023/03/01 07:35:15;;;;;;;6.03;4.22;;;;;;;10.86;73.18;102325.13;5048642;28;20628;-83
2023/03/01 07:37:47;;;;;;;6.60;4.38;;;;;;;10.85;72.74;102322.38;5031325;28;20040;-83
2023/03/01 07:40:16;;;;;;;7.75;4.90;;;;;;;10.53;72.63;102264.22;5041924;28;20056;-83
2023/03/01 07:42:42;;;;;;;7.32;4.70;;;;;;;10.62;73.08;102297.97;5028986;28;20106;-83
2023/03/01 07:45:09;;;;;;;7.07;5.03;;;;;;;10.23;73.36;102230.44;5029474;28;21090;-84
2023/03/01 07:47:38;;;;;;;7.55;4.85;;;;;;;10.19;72.93;102219.75;5047873;28;20028;-84
2023/03/01 07:50:07;;;;;;;6.55;4.82;;;;;;;10.64;73.00;102300.72;5024814;28;20406;-83
2023/03/01 07:52:32;;;;;;;7.35;4.75;;;;;;;10.77;73.06;102313.94;5044266;28;20387;-82
2023/03/01 07:54:58;;;;;;;7.43;4.68;;;;;;;10.77;72.99;102327.94;5048160;28;20505;-82
2023/03/01 07:57:24;;;;;;;5.40;4.20;;;;;;;10.90;72.90;102336.72;5047079;28;20555;-82
2023/03/01 07:59:49;;;;;;;6.63;4.35;;;;;;;10.85;72.97;102333.75;5054301;28;20032;-83
2023/03/01 08:02:15;;;;;;;6.50;4.60;;;;;;;10.89;73.20;102343.66;5065684;28;20048;-81
2023/03/01 08:04:42;;;;;;;6.38;4.70;;;;;;;10.77;73.03;102317.47;5053019;28;20035;-83
2023/03/01 08:07:08;;;;;;;6.20;4.40;;;;;;;10.73;72.94;102297.13;5044839;28;20454;-83
2023/03/01 08:09:37;;;;;;;5.95;4.68;;;;;;;10.79;73.10;102320.19;5045697;28;20056;-84
2023/03/01 08:12:04;;;;;;;7.05;4.60;;;;;;;10.79;73.17;102326.34;5048862;28;20087;-83
2023/03/01 08:14:30;;;;;;;8.35;4.93;;;;;;;10.69;72.85;102317.66;5042909;28;20107;-83
2023/03/01 08:16:56;;;;;;;6.18;4.57;;;;;;;10.86;73.03;102330.34;5042145;28;20056;-83
2023/03/01 08:19:23;;;;;;;7.82;5.03;;;;;;;10.55;73.08;102288.75;5047003;28;20461;-83
2023/03/01 08:21:49;;;;;;;6.63;4.85;;;;;;;10.73;73.05;102323.25;5059052;28;20079;-84
2023/03/01 08:24:14;;;;;;;6.40;4.45;;;;;;;10.86;72.72;102330.34;5044586;28;20060;-84
2023/03/01 08:26:40;;;;;;;5.43;4.05;;;;;;;10.83;72.98;102324.88;5047685;28;20025;-84
2023/03/01 08:29:06;;;;;;;7.50;4.65;;;;;;;10.73;73.13;102314.47;5035321;28;20040;-85
2023/03/01 08:31:35;;;;;;;6.30;4.47;;;;;;;10.83;72.69;102335.31;5044685;28;20032;-84
2023/03/01 08:34:04;;;;;;;6.45;4.78;;;;;;;10.69;72.80;102313.34;5040710;28;20032;-85
2023/03/01 08:36:33;;;;;;;5.90;4.50;;;;;;;10.84;73.29;102339.78;5047304;28;20061;-85
2023/03/01 08:38:58;;;;;;;8.65;4.80;;;;;;;10.51;72.73;102281.47;5044724;28;20033;-84
2023/03/01 08:41:24;;;;;;;7.38;4.90;;;;;;;10.72;72.73;102318.81;5043095;28;20566;-86
2023/03/01 08:43:50;;;;;;;6.63;4.72;;;;;;;10.85;73.38;102345.91;5041560;28;20116;-85
2023/03/01 08:46:16;;;;;;;7.35;4.65;;;;;;;10.72;73.17;102320.50;5046469;28;20117;-85
2023/03/01 08:48:42;;;;;;;7.55;4.43;;;;;;;10.74;73.08;102326.78;5049124;28;20487;-86
2023/03/01 08:51:18;;;;;;;6.75;4.47;;;;;;;10.49;73.35;102277.81;5046890;28;20029;-86
2023/03/01 08:53:44;;;;;;;6.20;4.38;;;;;;;10.55;73.29;102285.22;5046078;28;20482;-87
2023/03/01 08:56:11;;;;;;;7.75;4.65;;;;;;;10.78;73.23;102332.34;5048322;28;20033;-88
2023/03/01 08:58:36;;;;;;;;;;;;;;;10.75;73.06;102332.13;5051154;28;20029;-90
2023/03/01 09:01:17;;;;;;;11.27;5.10;;;;;;;10.73;73.16;102330.16;5051440;28;19927;-89
2023/03/01 09:03:43;;;;;;;8.73;5.72;;;;;;;10.77;73.25;102332.22;5064902;28;20057;-88
2023/03/01 09:06:10;;;;;;;;;;;;;;;10.80;73.29;102333.38;5054702;28;20032;-90
2023/03/01 09:08:40;;;;;;;8.03;5.07;;;;;;;10.42;73.11;102275.53;5053524;28;20382;-90
2023/03/01 09:11:08;;;;;;;10.20;5.88;;;;;;;10.48;73.12;102286.47;5029190;28;20437;-89
2023/03/01 09:13:34;;;;;;;8.07;4.78;;;;;;;10.65;73.57;102318.22;5030247;28;20037;-88
2023/03/01 09:16:05;;;;;;;9.43;5.43;;;;;;;10.74;73.16;102330.28;5045397;28;20028;-91
2023/03/01 09:18:31;;;;;;;8.45;5.43;;;;;;;10.64;73.17;102309.47;5061817;28;20033;-90
2023/03/01 09:21:06;;;;;;;8.57;5.75;;;;;;;10.70;73.78;102337.78;5045705;28;20025;-90
2023/03/01 09:23:34;;;;;;;7.75;5.25;;;;;;;10.68;73.74;102337.66;5043418;28;20454;-89
2023/03/01 09:26:03;;;;;;;8.73;5.50;;;;;;;10.71;73.77;102327.47;5041861;28;20032;-90
2023/03/01 09:28:29;;;;;;;7.93;5.35;;;;;;;10.62;73.87;102311.03;5044295;28;20253;-89
2023/03/01 09:30:59;;;;;;;8.05;5.30;;;;;;;10.75;73.65;102321.69;5031781;28;20119;-89
2023/03/01 09:33:24;;;;;;;7.97;5.15;;;;;;;10.77;74.12;102327.00;5045533;28;20037;-90
2023/03/01 09:35:56;;;;;;;9.27;5.85;;;;;;;10.66;73.91;102302.66;5034277;28;20028;-90
2023/03/01 09:38:22;;;;;;;8.55;5.10;;;;;;;10.58;74.29;102289.00;5051433;28;20032;-89
2023/03/01 09:40:50;;;;;;;8.48;5.50;;;;;;;10.62;74.23;102284.91;5051443;28;20021;-88
2023/03/01 09:43:21;;;;;;;8.93;5.32;;;;;;;10.49;74.26;102262.16;5051073;28;20028;-89
2023/03/01 09:45:50;;;;;;;8.38;5.15;;;;;;;10.59;74.32;102272.53;5048612;28;20043;-89
2023/03/01 09:48:22;;;;;;;12.75;5.43;;;;;;;10.76;74.63;102305.19;5048879;28;20490;-89
2023/03/01 09:50:47;;;;;;;11.13;5.45;;;;;;;10.78;74.50;102302.72;5033393;28;20031;-88
2023/03/01 09:53:18;;;;;;;10.93;5.22;;;;;;;10.80;74.93;102298.50;5032371;28;20033;-90
2023/03/01 09:55:51;;;;;;;8.48;5.35;;;;;;;10.69;74.66;102281.06;5050551;28;20052;-89
2023/03/01 09:58:25;;;;;;;9.10;5.35;;;;;;;10.79;74.92;102294.06;5062610;28;20060;-88
2023/03/01 10:00:52;;;;;;;9.27;5.63;;;;;;;10.76;75.09;102289.50;5046700;28;20033;-91
2023/03/01 10:03:31;;;;;;;10.43;6.00;;;;;;;10.66;75.17;102273.00;5049845;28;20080;-90
2023/03/01 10:06:04;;;;;;;9.98;5.65;;;;;;;10.79;75.24;102291.44;5039931;28;20063;-90
2023/03/01 10:08:46;;;;;;;8.43;5.00;;;;;;;10.85;75.17;102288.41;5051809;28;20078;-90
2023/03/01 10:11:26;;;;;;;8.85;5.63;;;;;;;10.80;75.56;102277.59;5036348;28;20071;-91
2023/03/01 10:14:25;;;;;;;9.27;5.10;;;;;;;10.66;75.84;102255.63;5024596;28;20036;-90
2023/03/01 10:17:24;;;;;;;10.73;6.07;;;;;;;10.82;75.60;102289.09;5041045;28;20029;-90
2023/03/01 10:19:52;;;;;;;10.90;5.38;;;;;;;10.84;75.70;102284.91;5034091;28;20029;-91
2023/03/01 10:22:22;;;;;;;9.30;5.15;;;;;;;10.87;75.52;102281.59;5047968;28;20525;-92
2023/03/01 10:24:52;;;;;;;10.63;5.28;;;;;;;10.88;76.04;102279.13;5046621;28;20029;-90
2023/03/01 10:27:26;;;;;;;13.20;6.22;;;;;;;10.87;76.17;102278.97;5038657;28;20040;-90
2023/03/01 10:30:15;;;;;;;8.55;5.70;;;;;;;10.91;76.17;102284.56;5047792;28;20033;-88
2023/03/01 10:32:43;;;;;;;10.07;5.30;;;;;;;10.75;76.77;102260.66;5043679;28;20123;-91
2023/03/01 10:35:20;;;;;;;10.82;5.93;;;;;;;10.70;77.26;102254.16;5042162;28;20040;-91
2023/03/01 10:37:59;;;;;;;;;;;;;;;10.85;77.01;102291.03;5049218;28;20040;-89
2023/03/01 10:40:36;;;;;;;12.48;6.47;;;;;;;10.84;77.47;102277.06;5050436;28;19917;-90
2023/03/01 10:43:05;;;;;;;11.25;5.97;;;;;;;10.73;76.87;102255.31;5054658;28;20398;-90
2023/03/01 10:45:37;;;;;;;12.15;6.43;;;;;;;10.95;77.49;102280.50;5050452;28;20414;-90
2023/03/01 10:48:26;;;;;;;12.10;6.32;;;;;;;10.81;77.42;102253.28;5053871;28;20067;-90
2023/03/01 10:51:06;;;;;;;14.35;6.50;;;;;;;10.97;77.06;102279.81;5049036;28;20048;-91
2023/03/01 10:53:40;;;;;;;14.45;7.03;;;;;;;10.79;78.38;102245.34;5051672;28;20498;-90
2023/03/01 10:56:13;;;;;;;13.80;7.10;;;;;;;10.90;78.36;102273.97;5063373;28;20029;-90
2023/03/01 10:58:57;;;;;;;16.85;6.82;;;;;;;10.79;78.28;102247.97;5061444;28;20049;-90
2023/03/01 11:01:28;;;;;;;13.27;6.75;;;;;;;10.79;78.20;102237.50;5050521;28;20029;-90
2023/03/01 11:04:03;;;;;;;15.70;7.15;;;;;;;11.02;77.89;102261.84;5066662;28;20033;-91
2023/03/01 11:06:30;;;;;;;18.13;8.10;;;;;;;10.88;78.13;102237.28;5049757;28;20493;-90
2023/03/01 11:09:18;;;;;;;17.70;7.68;;;;;;;11.02;78.49;102261.84;5068620;28;20085;-91
2023/03/01 11:11:46;;;;;;;17.30;7.05;;;;;;;11.03;78.69;102257.53;5049613;28;20032;-92
2023/03/01 11:14:34;;;;;;;23.05;8.52;;;;;;;11.07;78.57;102250.06;5064792;28;20033;-92
2023/03/01 11:17:18;;;;;;;29.45;9.63;;;;;;;11.11;78.69;102248.56;5030150;28;20025;-91
2023/03/01 11:20:04;;;;;;;44.08;11.45;;;;;;;11.12;78.75;102239.94;5033577;28;20055;-91
2023/03/01 11:22:31;;;;;;;47.83;12.05;;;;;;;11.17;78.66;102230.72;5055131;28;20045;-91
2023/03/01 11:24:59;;;;;;;46.33;12.68;;;;;;;11.13;79.61;102226.06;5032994;28;20029;-92
2023/03/01 11:27:31;;;;;;;67.43;15.43;;;;;;;11.13;80.48;102220.84;5051019;28;20037;-89
2023/03/01 11:30:07;;;;;;;97.28;17.52;;;;;;;11.11;79.97;102211.97;5039348;28;20060;-90
2023/03/01 11:32:45;;;;;;;;;;;;;;;11.13;80.83;102224.38;5054932;28;20024;-91
2023/03/01 11:35:25;;;;;;;119.28;22.27;;;;;;;10.96;81.17;102185.59;5059863;28;20373;-91